createdAt,value
2022-10-09T00:01:10.886Z,100525.69
2022-10-09T00:02:12.674Z,100533.03
2022-10-09T00:03:17.228Z,100529.03
2022-10-09T00:04:19.016Z,100520.66
2022-10-09T00:05:23.712Z,100540.19
2022-10-09T00:06:31.878Z,100541.22
2022-10-09T00:07:33.558Z,100534.31
2022-10-09T00:08:36.263Z,100542.63
2022-10-09T00:09:37.994Z,100540.56
2022-10-09T00:10:43.977Z,100543.66
2022-10-09T00:11:45.691Z,100528.94
2022-10-09T00:12:48.163Z,100549.06
2022-10-09T00:13:51.299Z,100542.53
2022-10-09T00:14:53.027Z,100546.03
2022-10-09T00:15:54.690Z,100552.13
2022-10-09T00:16:56.426Z,100551.66
2022-10-09T00:17:58.146Z,100550.63
2022-10-09T00:18:59.927Z,100556.84
2022-10-09T00:20:01.700Z,100550.16
2022-10-09T00:21:04.233Z,100564.13
2022-10-09T00:22:05.899Z,100562.44
2022-10-09T00:23:08.036Z,100561.78
2022-10-09T00:24:09.919Z,100563.47
2022-10-09T00:25:11.633Z,100559.25
2022-10-09T00:26:13.503Z,100562.16
2022-10-09T00:27:15.187Z,100571.72
2022-10-09T00:28:17.004Z,100557.16
2022-10-09T00:29:18.866Z,100570.06
2022-10-09T00:30:20.522Z,100577.50
2022-10-09T00:31:22.713Z,100571.47
2022-10-09T00:32:24.960Z,100578.34
2022-10-09T00:33:26.619Z,100571.66
2022-10-09T00:34:28.321Z,100583.91
2022-10-09T00:35:29.979Z,100574.16
2022-10-09T00:36:31.706Z,100584.13
2022-10-09T00:37:33.406Z,100573.50
2022-10-09T00:38:35.267Z,100586.81
2022-10-09T00:39:37.107Z,100580.94
2022-10-09T00:40:38.885Z,100580.94
2022-10-09T00:41:41.192Z,100589.69
2022-10-09T00:42:45.696Z,100595.09
2022-10-09T00:43:51.087Z,100597.78
2022-10-09T00:45:01.559Z,100594.06
2022-10-09T00:46:03.773Z,100599.47
2022-10-09T00:47:05.772Z,100591.75
2022-10-09T00:48:08.178Z,100596.97
2022-10-09T00:49:22.073Z,100596.09
2022-10-09T00:50:43.614Z,100579.84
2022-10-09T00:51:48.340Z,100594.06
2022-10-09T00:53:03.654Z,100600.47
2022-10-09T00:54:08.695Z,100584.88
2022-10-09T00:55:11.888Z,100604.56
2022-10-09T00:56:13.630Z,100608.94
2022-10-09T00:57:15.602Z,100613.03
2022-10-09T00:58:17.310Z,100613.03
2022-10-09T00:59:19.811Z,100612.56
2022-10-09T01:00:22.005Z,100617.94
2022-10-09T01:01:23.961Z,100620.31
2022-10-09T01:02:25.716Z,100627.56
2022-10-09T01:03:28.057Z,100613.78
2022-10-09T01:04:29.821Z,100616.94
2022-10-09T01:05:43.455Z,100622.53
2022-10-09T01:07:00.270Z,100623.47
2022-10-09T01:08:04.956Z,100620.97
2022-10-09T01:09:15.468Z,100620.09
2022-10-09T01:10:44.480Z,100633.06
2022-10-09T01:11:56.344Z,100626.00
2022-10-09T01:13:19.721Z,100628.19
2022-10-09T01:15:31.271Z,100634.81
2022-10-09T01:16:47.708Z,100632.13
2022-10-09T01:18:12.847Z,100629.59
2022-10-09T01:19:32.599Z,100636.78
2022-10-09T01:20:50.032Z,100623.34
2022-10-09T01:22:14.048Z,100639.19
2022-10-09T01:23:34.350Z,100636.28
2022-10-09T01:24:42.238Z,100625.38
2022-10-09T01:25:55.312Z,100631.63
2022-10-09T01:27:04.086Z,100632.66
2022-10-09T01:28:07.411Z,100637.41
2022-10-09T01:29:11.544Z,100629.81
2022-10-09T01:30:13.637Z,100630.38
2022-10-09T01:31:18.080Z,100639.94
2022-10-09T01:32:24.090Z,100638.47
2022-10-09T01:33:27.654Z,100647.22
2022-10-09T01:34:31.335Z,100651.97
2022-10-09T01:35:33.212Z,100645.72
2022-10-09T01:36:37.051Z,100649.25
2022-10-09T01:37:42.583Z,100653.81
2022-10-09T01:38:45.610Z,100648.59
2022-10-09T01:39:48.875Z,100652.97
2022-10-09T01:40:53.499Z,100655.69
2022-10-09T01:41:56.207Z,100652.97
2022-10-09T01:42:59.574Z,100654.38
2022-10-09T01:44:01.305Z,100657.72
2022-10-09T01:45:03.146Z,100658.91
2022-10-09T01:46:23.614Z,100661.72
2022-10-09T01:47:25.493Z,100662.09
2022-10-09T01:48:28.080Z,100668.31
2022-10-09T01:49:44.099Z,100673.69
2022-10-09T01:50:51.540Z,100668.13
2022-10-09T01:52:14.327Z,100672.31
2022-10-09T01:53:19.975Z,100672.50
2022-10-09T01:54:32.530Z,100666.63
2022-10-09T01:55:43.082Z,100677.91
2022-10-09T01:56:48.775Z,100667.16
2022-10-09T01:58:11.855Z,100682.66
2022-10-09T01:59:15.982Z,100686.00
2022-10-09T02:00:18.756Z,100685.50
2022-10-09T02:01:35.342Z,100682.00
2022-10-09T02:02:38.031Z,100692.78
2022-10-09T02:03:42.713Z,100688.56
2022-10-09T02:04:45.558Z,100685.22
2022-10-09T02:05:51.181Z,100687.63
2022-10-09T02:06:54.399Z,100690.78
2022-10-09T02:07:58.402Z,100686.41
2022-10-09T02:09:01.700Z,100683.41
2022-10-09T02:10:06.475Z,100695.88
2022-10-09T02:11:10.887Z,100693.84
2022-10-09T02:12:14.315Z,100691.13
2022-10-09T02:13:16.208Z,100687.13
2022-10-09T02:14:18.331Z,100702.94
2022-10-09T02:15:22.776Z,100701.25
2022-10-09T02:16:40.041Z,100697.19
2022-10-09T02:17:49.131Z,100693.84
2022-10-09T02:19:09.276Z,100704.25
2022-10-09T02:20:24.991Z,100699.72
2022-10-09T02:21:35.003Z,100704.91
2022-10-09T02:22:37.024Z,100707.97
2022-10-09T02:23:41.850Z,100704.63
2022-10-09T02:24:44.673Z,100700.59
2022-10-09T02:25:46.673Z,100694.75
2022-10-09T02:26:48.649Z,100704.53
2022-10-09T02:27:50.503Z,100710.75
2022-10-09T02:28:52.438Z,100706.72
2022-10-09T02:29:55.030Z,100707.75
2022-10-09T02:31:03.849Z,100710.28
2022-10-09T02:32:05.845Z,100721.53
2022-10-09T02:33:07.515Z,100715.09
2022-10-09T02:34:12.394Z,100718.16
2022-10-09T02:35:14.262Z,100703.38
2022-10-09T02:36:15.946Z,100708.97
2022-10-09T02:37:17.914Z,100722.75
2022-10-09T02:38:19.635Z,100717.88
2022-10-09T02:39:21.315Z,100719.19
2022-10-09T02:40:23.020Z,100730.81
2022-10-09T02:41:25.621Z,100730.16
2022-10-09T02:42:27.480Z,100719.25
2022-10-09T02:43:29.547Z,100730.34
2022-10-09T02:44:31.214Z,100730.34
2022-10-09T02:45:32.914Z,100732.19
2022-10-09T02:46:35.153Z,100735.72
2022-10-09T02:47:37.108Z,100732.19
2022-10-09T02:48:38.836Z,100725.66
2022-10-09T02:49:40.511Z,100728.66
2022-10-09T02:50:42.198Z,100736.75
2022-10-09T02:51:43.887Z,100727.34
2022-10-09T02:52:45.690Z,100733.38
2022-10-09T02:53:47.716Z,100733.38
2022-10-09T02:54:49.399Z,100723.78
2022-10-09T02:55:51.131Z,100731.72
2022-10-09T02:56:52.815Z,100740.81
2022-10-09T02:57:54.522Z,100737.09
2022-10-09T02:58:57.003Z,100733.75
2022-10-09T02:59:58.677Z,100730.38
2022-10-09T03:01:00.562Z,100732.06
2022-10-09T03:02:02.534Z,100742.84
2022-10-09T03:03:04.456Z,100741.16
2022-10-09T03:04:06.198Z,100741.16
2022-10-09T03:05:08.362Z,100733.25
2022-10-09T03:06:12.886Z,100746.56
2022-10-09T03:07:14.570Z,100746.72
2022-10-09T03:08:16.270Z,100745.03
2022-10-09T03:09:17.958Z,100746.56
2022-10-09T03:10:20.411Z,100749.41
2022-10-09T03:11:24.757Z,100755.66
2022-10-09T03:12:26.583Z,100745.25
2022-10-09T03:13:28.831Z,100753.13
2022-10-09T03:14:30.539Z,100752.97
2022-10-09T03:15:37.782Z,100749.41
2022-10-09T03:16:39.635Z,100761.06
2022-10-09T03:17:41.432Z,100756.19
2022-10-09T03:18:44.114Z,100763.09
2022-10-09T03:19:45.815Z,100754.69
2022-10-09T03:20:47.728Z,100762.44
2022-10-09T03:21:49.414Z,100766.81
2022-10-09T03:22:51.413Z,100768.66
2022-10-09T03:23:53.889Z,100762.59
2022-10-09T03:24:55.596Z,100765.13
2022-10-09T03:26:02.907Z,100775.91
2022-10-09T03:27:04.651Z,100769.31
2022-10-09T03:28:06.468Z,100764.47
2022-10-09T03:29:08.196Z,100777.59
2022-10-09T03:30:10.248Z,100769.00
2022-10-09T03:31:22.542Z,100773.22
2022-10-09T03:32:33.756Z,100785.97
2022-10-09T03:33:36.375Z,100788.84
2022-10-09T03:34:38.114Z,100782.97
2022-10-09T03:35:41.254Z,100779.63
2022-10-09T03:36:43.549Z,100788.53
2022-10-09T03:37:45.288Z,100786.03
2022-10-09T03:38:47.023Z,100785.53
2022-10-09T03:39:48.699Z,100794.13
2022-10-09T03:40:50.892Z,100796.16
2022-10-09T03:41:52.550Z,100790.25
2022-10-09T03:42:54.265Z,100798.84
2022-10-09T03:43:56.004Z,100789.09
2022-10-09T03:45:00.854Z,100793.63
2022-10-09T03:46:07.201Z,100794.47
2022-10-09T03:47:08.892Z,100790.25
2022-10-09T03:48:11.926Z,100799.88
2022-10-09T03:49:14.041Z,100793.63
2022-10-09T03:50:15.800Z,100798.53
2022-10-09T03:51:17.463Z,100803.72
2022-10-09T03:52:19.211Z,100800.38
2022-10-09T03:53:20.959Z,100803.25
2022-10-09T03:54:22.638Z,100805.97
2022-10-09T03:55:24.364Z,100813.69
2022-10-09T03:56:26.053Z,100816.38
2022-10-09T03:57:27.794Z,100805.09
2022-10-09T03:58:29.755Z,100817.41
2022-10-09T03:59:31.399Z,100814.19
2022-10-09T04:00:33.921Z,100818.41
2022-10-09T04:01:36.477Z,100822.78
2022-10-09T04:02:38.188Z,100823.81
2022-10-09T04:03:39.955Z,100808.97
2022-10-09T04:04:41.648Z,100810.00
2022-10-09T04:05:43.350Z,100817.06
2022-10-09T04:06:45.323Z,100817.06
2022-10-09T04:07:47.030Z,100822.13
2022-10-09T04:08:48.728Z,100827.00
2022-10-09T04:09:50.711Z,100816.22
2022-10-09T04:11:01.707Z,100823.31
2022-10-09T04:12:03.877Z,100818.75
2022-10-09T04:13:05.744Z,100832.72
2022-10-09T04:14:07.503Z,100827.84
2022-10-09T04:15:10.126Z,100826.81
2022-10-09T04:16:12.948Z,100834.91
2022-10-09T04:17:14.752Z,100832.56
2022-10-09T04:18:16.461Z,100829.03
2022-10-09T04:19:18.187Z,100825.16
2022-10-09T04:20:20.963Z,100830.53
2022-10-09T04:21:22.644Z,100837.78
2022-10-09T04:22:24.499Z,100838.16
2022-10-09T04:23:27.874Z,100839.63
2022-10-09T04:24:29.585Z,100836.63
2022-10-09T04:25:31.904Z,100835.59
2022-10-09T04:26:33.563Z,100846.38
2022-10-09T04:27:35.280Z,100849.75
2022-10-09T04:28:37.034Z,100849.75
2022-10-09T04:29:39.519Z,100847.06
2022-10-09T04:30:41.452Z,100852.63
2022-10-09T04:31:43.206Z,100853.47
2022-10-09T04:32:45.019Z,100857.84
2022-10-09T04:33:46.787Z,100858.84
2022-10-09T04:34:48.494Z,100854.31
2022-10-09T04:35:51.994Z,100859.03
2022-10-09T04:36:53.750Z,100851.78
2022-10-09T04:37:55.434Z,100861.72
2022-10-09T04:38:57.132Z,100855.50
2022-10-09T04:39:58.847Z,100855.00
2022-10-09T04:41:03.583Z,100859.19
2022-10-09T04:42:06.327Z,100860.06
2022-10-09T04:43:08.010Z,100855.84
2022-10-09T04:44:10.062Z,100859.53
2022-10-09T04:45:12.042Z,100865.59
2022-10-09T04:46:15.091Z,100855.00
2022-10-09T04:47:17.584Z,100852.47
2022-10-09T04:48:20.051Z,100864.78
2022-10-09T04:49:21.774Z,100868.47
2022-10-09T04:50:23.923Z,100858.88
2022-10-09T04:51:34.659Z,100869.97
2022-10-09T04:52:36.339Z,100865.59
2022-10-09T04:53:39.370Z,100869.50
2022-10-09T04:54:41.090Z,100866.44
2022-10-09T04:55:43.979Z,100871.53
2022-10-09T04:56:45.685Z,100869.00
2022-10-09T04:57:47.383Z,100870.16
2022-10-09T04:58:50.783Z,100880.44
2022-10-09T04:59:52.550Z,100876.06
2022-10-09T05:00:54.272Z,100879.75
2022-10-09T05:01:56.159Z,100881.44
2022-10-09T05:02:57.922Z,100873.56
2022-10-09T05:03:59.629Z,100878.41
2022-10-09T05:05:01.330Z,100885.47
2022-10-09T05:06:08.468Z,100888.00
2022-10-09T05:07:10.142Z,100895.09
2022-10-09T05:08:11.959Z,100889.72
2022-10-09T05:09:13.722Z,100882.09
2022-10-09T05:10:15.537Z,100892.53
2022-10-09T05:11:20.135Z,100886.47
2022-10-09T05:12:21.886Z,100889.84
2022-10-09T05:13:23.583Z,100892.53
2022-10-09T05:14:25.283Z,100896.25
2022-10-09T05:15:27.342Z,100880.59
2022-10-09T05:16:31.677Z,100882.97
2022-10-09T05:17:33.618Z,100888.16
2022-10-09T05:18:35.967Z,100887.50
2022-10-09T05:19:37.751Z,100884.13
2022-10-09T05:20:42.169Z,100888.66
2022-10-09T05:21:44.052Z,100895.44
2022-10-09T05:22:47.477Z,100902.66
2022-10-09T05:23:49.811Z,100899.97
2022-10-09T05:24:51.482Z,100905.50
2022-10-09T05:26:01.211Z,100905.34
2022-10-09T05:27:02.908Z,100902.81
2022-10-09T05:28:06.380Z,100902.31
2022-10-09T05:29:08.246Z,100907.38
2022-10-09T05:30:10.957Z,100914.44
2022-10-09T05:31:31.879Z,100917.50
2022-10-09T05:32:33.630Z,100915.09
2022-10-09T05:33:35.750Z,100916.13
2022-10-09T05:34:37.569Z,100919.81
2022-10-09T05:35:39.236Z,100910.88
2022-10-09T05:36:40.941Z,100901.16
2022-10-09T05:37:45.678Z,100921.84
2022-10-09T05:38:47.788Z,100910.75
2022-10-09T05:39:49.500Z,100912.44
2022-10-09T05:40:52.949Z,100921.34
2022-10-09T05:41:54.607Z,100908.72
2022-10-09T05:42:56.286Z,100908.06
2022-10-09T05:44:02.085Z,100913.09
2022-10-09T05:45:04.361Z,100914.78
2022-10-09T05:46:11.872Z,100906.38
2022-10-09T05:47:17.847Z,100915.13
2022-10-09T05:48:20.132Z,100918.84
2022-10-09T05:49:21.977Z,100928.91
2022-10-09T05:50:23.704Z,100927.41
2022-10-09T05:51:28.331Z,100936.69
2022-10-09T05:52:30.040Z,100936.34
2022-10-09T05:53:32.082Z,100943.75
2022-10-09T05:54:33.754Z,100940.72
2022-10-09T05:55:35.533Z,100936.69
2022-10-09T05:56:38.874Z,100951.16
2022-10-09T05:57:40.592Z,100945.25
2022-10-09T05:58:43.520Z,100951.16
2022-10-09T05:59:45.212Z,100944.44
2022-10-09T06:00:46.920Z,100959.91
2022-10-09T06:01:51.264Z,100957.91
2022-10-09T06:02:53.401Z,100961.94
2022-10-09T06:03:58.625Z,100961.94
2022-10-09T06:05:00.332Z,100955.69
2022-10-09T06:06:07.922Z,100961.94
2022-10-09T06:07:11.153Z,100957.38
2022-10-09T06:08:12.914Z,100958.22
2022-10-09T06:09:16.808Z,100963.63
2022-10-09T06:10:18.510Z,100960.41
2022-10-09T06:11:22.744Z,100958.56
2022-10-09T06:12:24.411Z,100960.41
2022-10-09T06:13:26.703Z,100964.97
2022-10-09T06:14:29.159Z,100955.88
2022-10-09T06:15:31.004Z,100958.41
2022-10-09T06:16:34.755Z,100961.75
2022-10-09T06:17:36.443Z,100948.13
2022-10-09T06:18:38.867Z,100963.13
2022-10-09T06:19:40.522Z,100955.38
2022-10-09T06:20:53.511Z,100959.22
2022-10-09T06:21:55.202Z,100950.13
2022-10-09T06:22:57.095Z,100956.03
2022-10-09T06:24:00.343Z,100955.69
2022-10-09T06:25:02.204Z,100952.16
2022-10-09T06:26:07.851Z,100961.25
2022-10-09T06:27:10.963Z,100956.16
2022-10-09T06:28:12.746Z,100962.22
2022-10-09T06:29:14.454Z,100963.91
2022-10-09T06:30:16.250Z,100961.53
2022-10-09T06:31:20.994Z,100961.19
2022-10-09T06:32:22.723Z,100953.09
2022-10-09T06:33:24.394Z,100963.84
2022-10-09T06:34:26.219Z,100959.97
2022-10-09T06:35:27.880Z,100956.94
2022-10-09T06:36:32.591Z,100963.66
2022-10-09T06:37:34.322Z,100962.28
2022-10-09T06:38:36.690Z,100962.13
2022-10-09T06:39:38.375Z,100951.34
2022-10-09T06:40:40.086Z,100958.22
2022-10-09T06:41:41.955Z,100962.59
2022-10-09T06:42:58.652Z,100964.94
2022-10-09T06:44:04.373Z,100966.81
2022-10-09T06:45:06.719Z,100965.63
2022-10-09T06:46:11.073Z,100963.75
2022-10-09T06:47:12.859Z,100962.75
2022-10-09T06:48:14.539Z,100973.84
2022-10-09T06:49:16.489Z,100979.06
2022-10-09T06:50:18.229Z,100972.66
2022-10-09T06:51:22.076Z,100973.84
2022-10-09T06:52:23.840Z,100982.44
2022-10-09T06:53:25.506Z,100980.41
2022-10-09T06:54:27.229Z,100989.81
2022-10-09T06:55:28.969Z,100981.88
2022-10-09T06:56:32.307Z,100988.63
2022-10-09T06:57:33.999Z,100989.31
2022-10-09T06:58:36.178Z,100987.78
2022-10-09T06:59:37.854Z,100982.41
2022-10-09T07:00:39.500Z,100983.22
2022-10-09T07:01:41.501Z,100989.31
2022-10-09T07:02:44.172Z,100989.97
2022-10-09T07:03:52.116Z,100994.16
2022-10-09T07:04:53.794Z,100996.34
2022-10-09T07:06:06.109Z,100990.44
2022-10-09T07:07:07.800Z,100990.28
2022-10-09T07:08:09.502Z,100989.25
2022-10-09T07:09:13.619Z,100990.09
2022-10-09T07:10:15.649Z,100996.81
2022-10-09T07:11:24.294Z,101001.38
2022-10-09T07:12:26.001Z,100980.97
2022-10-09T07:13:30.014Z,100985.19
2022-10-09T07:14:31.701Z,100991.06
2022-10-09T07:15:33.451Z,100990.59
2022-10-09T07:16:39.200Z,100992.63
2022-10-09T07:17:40.927Z,101002.72
2022-10-09T07:18:42.586Z,100999.34
2022-10-09T07:19:44.320Z,100988.72
2022-10-09T07:20:46.004Z,101002.72
2022-10-09T07:21:49.574Z,101001.84
2022-10-09T07:22:52.088Z,100998.69
2022-10-09T07:23:54.260Z,101004.38
2022-10-09T07:24:56.032Z,101002.72
2022-10-09T07:25:58.971Z,101004.38
2022-10-09T07:27:00.691Z,101006.44
2022-10-09T07:28:02.482Z,101007.09
2022-10-09T07:29:06.528Z,101007.09
2022-10-09T07:30:08.965Z,101010.59
2022-10-09T07:31:11.843Z,101013.16
2022-10-09T07:32:13.653Z,101007.91
2022-10-09T07:33:15.310Z,101006.44
2022-10-09T07:34:17.019Z,101010.44
2022-10-09T07:35:18.702Z,101003.53
2022-10-09T07:36:20.964Z,101005.56
2022-10-09T07:37:22.744Z,101012.28
2022-10-09T07:38:24.653Z,101013.97
2022-10-09T07:39:26.814Z,101007.75
2022-10-09T07:40:28.520Z,101008.94
2022-10-09T07:41:30.498Z,101015.84
2022-10-09T07:42:32.175Z,101019.38
2022-10-09T07:43:41.523Z,101021.91
2022-10-09T07:44:43.282Z,101019.38
2022-10-09T07:45:45.164Z,101020.22
2022-10-09T07:46:46.926Z,101013.66
2022-10-09T07:47:48.739Z,101016.50
2022-10-09T07:48:51.241Z,101019.38
2022-10-09T07:49:52.969Z,101021.75
2022-10-09T07:50:55.655Z,101024.59
2022-10-09T07:51:57.427Z,101010.44
2022-10-09T07:52:59.179Z,101015.84
2022-10-09T07:54:02.298Z,101024.44
2022-10-09T07:55:04.379Z,101020.22
2022-10-09T07:56:06.862Z,101019.03
2022-10-09T07:57:08.526Z,101012.13
2022-10-09T07:58:10.204Z,101016.50
2022-10-09T07:59:15.499Z,101021.91
2022-10-09T08:00:17.643Z,101016.16
2022-10-09T08:01:20.634Z,101025.94
2022-10-09T08:02:22.620Z,101016.16
2022-10-09T08:03:24.339Z,101027.63
2022-10-09T08:04:26.415Z,101016.16
2022-10-09T08:05:28.149Z,101007.03
2022-10-09T08:06:31.205Z,101017.00
2022-10-09T08:07:35.074Z,101017.00
2022-10-09T08:08:37.404Z,101019.03
2022-10-09T08:09:39.696Z,101011.78
2022-10-09T08:10:41.511Z,101009.94
2022-10-09T08:11:43.235Z,101017.84
2022-10-09T08:12:45.578Z,101013.47
2022-10-09T08:13:49.660Z,101024.91
2022-10-09T08:14:51.355Z,101023.91
2022-10-09T08:15:53.118Z,101016.00
2022-10-09T08:16:54.817Z,101018.50
2022-10-09T08:17:56.618Z,101007.03
2022-10-09T08:19:00.229Z,101009.56
2022-10-09T08:20:01.907Z,101016.66
2022-10-09T08:21:16.118Z,101026.59
2022-10-09T08:22:17.782Z,101014.78
2022-10-09T08:23:19.545Z,101010.41
2022-10-09T08:24:21.219Z,101014.63
2022-10-09T08:25:22.936Z,101010.22
2022-10-09T08:26:26.425Z,101010.22
2022-10-09T08:27:28.107Z,101013.97
2022-10-09T08:28:29.945Z,101003.31
2022-10-09T08:29:34.596Z,101018.13
2022-10-09T08:30:38.319Z,101014.41
2022-10-09T08:31:40.169Z,101012.94
2022-10-09T08:32:42.015Z,101025.22
2022-10-09T08:33:44.052Z,101020.19
2022-10-09T08:34:46.960Z,101025.56
2022-10-09T08:35:51.936Z,101020.84
2022-10-09T08:36:53.608Z,101026.25
2022-10-09T08:37:55.426Z,101017.97
2022-10-09T08:38:57.234Z,101023.91
2022-10-09T08:39:59.004Z,101035.00
2022-10-09T08:41:08.264Z,101028.94
2022-10-09T08:42:36.951Z,101032.97
2022-10-09T08:43:44.215Z,101032.25
2022-10-09T08:44:49.162Z,101042.22
2022-10-09T08:45:51.646Z,101035.50
2022-10-09T08:47:03.598Z,101042.59
2022-10-09T08:48:15.938Z,101032.31
2022-10-09T08:49:22.540Z,101043.06
2022-10-09T08:50:51.519Z,101040.72
2022-10-09T08:51:56.131Z,101037.34
2022-10-09T08:53:18.619Z,101050.13
2022-10-09T08:54:39.617Z,101053.22
2022-10-09T08:55:46.783Z,101046.78
2022-10-09T08:56:50.992Z,101045.09
2022-10-09T08:57:55.739Z,101052.53
2022-10-09T08:58:57.673Z,101054.88
2022-10-09T08:59:59.379Z,101049.81
2022-10-09T09:01:36.160Z,101047.31
2022-10-09T09:02:47.413Z,101042.41
2022-10-09T09:04:18.954Z,101046.59
2022-10-09T09:05:39.091Z,101046.22
2022-10-09T09:06:45.459Z,101043.88
2022-10-09T09:08:03.515Z,101047.97
2022-10-09T09:10:06.671Z,101054.84
2022-10-09T09:11:18.120Z,101057.53
2022-10-09T09:12:25.131Z,101047.25
2022-10-09T09:13:44.320Z,101041.53
2022-10-09T09:15:14.931Z,101035.78
2022-10-09T09:16:28.376Z,101037.31
2022-10-09T09:17:36.051Z,101041.03
2022-10-09T09:18:45.429Z,101032.63
2022-10-09T09:19:59.199Z,101029.91
2022-10-09T09:21:18.224Z,101028.22
2022-10-09T09:22:20.612Z,101023.84
2022-10-09T09:23:29.721Z,101039.03
2022-10-09T09:24:38.424Z,101029.25
2022-10-09T09:25:41.877Z,101031.97
2022-10-09T09:26:45.645Z,101026.56
2022-10-09T09:27:47.952Z,101021.66
2022-10-09T09:28:55.640Z,101028.53
2022-10-09T09:30:12.523Z,101029.06
2022-10-09T09:31:27.965Z,101030.94
2022-10-09T09:32:31.430Z,101029.56
2022-10-09T09:33:36.222Z,101039.69
2022-10-09T09:34:42.050Z,101032.13
2022-10-09T09:35:58.866Z,101041.53
2022-10-09T09:37:01.205Z,101033.94
2022-10-09T09:38:03.015Z,101033.63
2022-10-09T09:40:38.285Z,101028.03
2022-10-09T09:41:43.254Z,101037.31
2022-10-09T09:42:44.956Z,101035.13
2022-10-09T09:43:47.300Z,101042.03
2022-10-09T09:44:59.699Z,101009.03
2022-10-09T09:46:02.346Z,101028.91
2022-10-09T09:47:04.555Z,101029.06
2022-10-09T09:48:15.094Z,101032.78
2022-10-09T09:49:19.281Z,101029.06
2022-10-09T09:50:56.454Z,101038.47
2022-10-09T09:52:02.997Z,101042.66
2022-10-09T09:53:16.802Z,101046.72
2022-10-09T09:54:47.887Z,101053.09
2022-10-09T09:55:53.887Z,101052.59
2022-10-09T09:57:12.822Z,101055.50
2022-10-09T09:58:17.692Z,101055.28
2022-10-09T09:59:33.236Z,101056.50
2022-10-09T10:00:35.730Z,101064.41
2022-10-09T10:01:37.504Z,101068.34
2022-10-09T10:02:39.257Z,101058.06
2022-10-09T10:03:50.023Z,101069.50
2022-10-09T10:04:58.917Z,101069.34
2022-10-09T10:06:01.005Z,101063.94
2022-10-09T10:07:03.167Z,101067.00
2022-10-09T10:08:29.212Z,101064.25
2022-10-09T10:09:31.953Z,101054.63
2022-10-09T10:10:33.782Z,101058.56
2022-10-09T10:11:35.845Z,101058.34
2022-10-09T10:12:58.574Z,101063.22
2022-10-09T10:14:07.571Z,101053.81
2022-10-09T10:15:25.955Z,101066.41
2022-10-09T10:16:29.253Z,101069.31
2022-10-09T10:17:35.528Z,101061.91
2022-10-09T10:18:43.171Z,101062.28
2022-10-09T10:19:50.567Z,101059.22
2022-10-09T10:21:03.360Z,101058.84
2022-10-09T10:22:21.047Z,101056.81
2022-10-09T10:23:34.611Z,101053.91
2022-10-09T10:24:46.954Z,101052.06
2022-10-09T10:25:50.535Z,101047.69
2022-10-09T10:26:58.227Z,101055.13
2022-10-09T10:28:16.840Z,101058.50
2022-10-09T10:29:36.565Z,101048.50
2022-10-09T10:30:39.134Z,101049.72
2022-10-09T10:31:43.605Z,101056.81
2022-10-09T10:33:02.434Z,101055.13
2022-10-09T10:34:11.006Z,101053.09
2022-10-09T10:35:17.555Z,101058.00
2022-10-09T10:36:19.404Z,101062.03
2022-10-09T10:37:41.938Z,101066.59
2022-10-09T10:38:50.237Z,101053.44
2022-10-09T10:40:03.590Z,101066.41
2022-10-09T10:41:20.028Z,101058.13
2022-10-09T10:42:43.946Z,101061.84
2022-10-09T10:44:28.895Z,101069.19
2022-10-09T10:45:54.947Z,101063.31
2022-10-09T10:47:12.814Z,101062.44
2022-10-09T10:48:42.757Z,101062.09
2022-10-09T10:49:44.594Z,101058.94
2022-10-09T10:51:04.095Z,101064.50
2022-10-09T10:52:43.864Z,101060.41
2022-10-09T10:53:51.025Z,101053.53
2022-10-09T10:55:03.574Z,101052.88
2022-10-09T10:56:14.015Z,101052.38
2022-10-09T10:57:24.456Z,101050.69
2022-10-09T10:58:26.106Z,101052.38
2022-10-09T10:59:51.315Z,101045.28
2022-10-09T11:01:22.081Z,101055.38
2022-10-09T11:02:56.903Z,101044.41
2022-10-09T11:04:14.271Z,101046.72
2022-10-09T11:05:27.125Z,101048.13
2022-10-09T11:06:40.563Z,101038.19
2022-10-09T11:07:44.950Z,101044.09
2022-10-09T11:09:01.398Z,101046.13
2022-10-09T11:10:21.887Z,101044.75
2022-10-09T11:11:56.011Z,101048.28
2022-10-09T11:13:18.563Z,101046.91
2022-10-09T11:14:38.808Z,101043.75
2022-10-09T11:16:00.809Z,101045.88
2022-10-09T11:17:26.458Z,101045.41
2022-10-09T11:18:36.660Z,101052.66
2022-10-09T11:19:52.970Z,101048.28
2022-10-09T11:21:24.452Z,101048.13
2022-10-09T11:22:42.418Z,101052.31
2022-10-09T11:24:12.913Z,101053.31
2022-10-09T11:25:30.560Z,101044.41
2022-10-09T11:26:57.552Z,101048.28
2022-10-09T11:28:18.544Z,101056.53
2022-10-09T11:29:27.191Z,101052.31
2022-10-09T11:30:38.161Z,101053.69
2022-10-09T11:31:50.693Z,101050.16
2022-10-09T11:33:19.182Z,101043.38
2022-10-09T11:34:35.187Z,101040.47
2022-10-09T11:35:44.090Z,101041.69
2022-10-09T11:36:45.905Z,101036.44
2022-10-09T11:37:59.089Z,101031.97
2022-10-09T11:39:05.542Z,101034.97
2022-10-09T11:40:18.594Z,101030.38
2022-10-09T11:41:20.801Z,101033.94
2022-10-09T11:42:25.517Z,101032.44
2022-10-09T11:43:27.223Z,101041.41
2022-10-09T11:44:47.193Z,101036.16
2022-10-09T11:46:50.310Z,101027.97
2022-10-09T11:48:10.181Z,101023.53
2022-10-09T11:49:41.271Z,101028.13
2022-10-09T11:50:58.893Z,101026.44
2022-10-09T11:52:09.502Z,101026.44
2022-10-09T11:53:14.999Z,101035.94
2022-10-09T11:54:19.865Z,101014.19
2022-10-09T11:55:25.268Z,101025.66
2022-10-09T11:56:32.291Z,101025.66
2022-10-09T11:57:35.475Z,101019.59
2022-10-09T11:58:37.150Z,101021.25
2022-10-09T11:59:42.436Z,101030.38
2022-10-09T12:00:44.918Z,101021.25
2022-10-09T12:01:47.681Z,101026.66
2022-10-09T12:02:59.926Z,101019.59
2022-10-09T12:04:09.672Z,101015.69
2022-10-09T12:05:19.410Z,101024.63
2022-10-09T12:06:22.471Z,101018.41
2022-10-09T12:07:33.455Z,101020.25
2022-10-09T12:08:36.567Z,101020.91
2022-10-09T12:09:47.384Z,101020.06
2022-10-09T12:10:59.383Z,101022.59
2022-10-09T12:12:20.223Z,101015.34
2022-10-09T12:13:37.268Z,101011.03
2022-10-09T12:14:38.975Z,101009.72
2022-10-09T12:16:01.049Z,101016.44
2022-10-09T12:17:14.776Z,101012.06
2022-10-09T12:18:25.351Z,101009.56
2022-10-09T12:19:38.098Z,101010.22
2022-10-09T12:20:44.173Z,101013.47
2022-10-09T12:22:06.505Z,101022.72
2022-10-09T12:23:25.765Z,101008.06
2022-10-09T12:24:38.255Z,101017.31
2022-10-09T12:25:45.512Z,101011.03
2022-10-09T12:26:49.975Z,101003.97
2022-10-09T12:27:56.291Z,101003.66
2022-10-09T12:29:01.692Z,101003.50
2022-10-09T12:30:18.652Z,100995.94
2022-10-09T12:31:29.394Z,101001.47
2022-10-09T12:32:37.027Z,100995.84
2022-10-09T12:33:51.766Z,100991.09
2022-10-09T12:34:55.341Z,100988.13
2022-10-09T12:36:14.180Z,100986.94
2022-10-09T12:37:17.673Z,100997.38
2022-10-09T12:38:26.168Z,100984.22
2022-10-09T12:39:27.851Z,100995.84